createdAt,value
2018-09-19T00:01:56.582Z,18.00
2018-09-19T00:04:25.007Z,18.00
2018-09-19T00:06:53.452Z,18.00
2018-09-19T00:09:21.950Z,18.00
2018-09-19T00:11:50.385Z,18.00
2018-09-19T00:14:18.801Z,18.00
2018-09-19T00:16:47.289Z,18.00
2018-09-19T00:19:15.714Z,18.00
2018-09-19T00:21:44.198Z,18.00
2018-09-19T00:24:12.630Z,18.10
2018-09-19T00:26:41.117Z,18.10
2018-09-19T00:29:09.497Z,18.00
2018-09-19T00:31:37.930Z,18.00
2018-09-19T00:34:06.351Z,18.00
2018-09-19T00:36:34.777Z,18.00
2018-09-19T00:39:03.270Z,18.00
2018-09-19T00:41:31.685Z,18.00
2018-09-19T00:44:00.122Z,18.00
2018-09-19T00:46:28.543Z,18.00
2018-09-19T00:48:56.987Z,17.90
2018-09-19T00:51:25.561Z,17.90
2018-09-19T00:53:54.009Z,17.80
2018-09-19T00:56:22.421Z,17.70
2018-09-19T00:58:50.869Z,17.70
2018-09-19T01:01:19.286Z,17.70
2018-09-19T01:03:47.742Z,17.70
2018-09-19T01:06:16.166Z,17.60
2018-09-19T01:08:44.597Z,17.60
2018-09-19T01:11:13.001Z,17.60
2018-09-19T01:13:41.453Z,17.60
2018-09-19T01:16:09.886Z,17.60
2018-09-19T01:18:38.311Z,17.70
2018-09-19T01:21:06.743Z,17.70
2018-09-19T01:23:35.173Z,17.70
2018-09-19T01:26:03.586Z,17.70
2018-09-19T01:28:32.029Z,17.70
2018-09-19T01:31:00.451Z,17.60
2018-09-19T01:33:28.935Z,17.50
2018-09-19T01:35:57.353Z,17.50
2018-09-19T01:38:25.793Z,17.50
2018-09-19T01:40:54.208Z,17.50
2018-09-19T01:43:22.643Z,17.40
2018-09-19T01:45:51.069Z,17.40
2018-09-19T01:48:19.507Z,17.40
2018-09-19T01:50:47.922Z,17.40
2018-09-19T01:53:16.353Z,17.40
2018-09-19T01:55:44.769Z,17.30
2018-09-19T01:58:13.206Z,17.20
2018-09-19T02:00:41.618Z,17.20
2018-09-19T02:03:10.054Z,17.20
2018-09-19T02:05:38.473Z,17.10
2018-09-19T02:08:06.924Z,17.10
2018-09-19T02:10:35.355Z,17.10
2018-09-19T02:13:04.014Z,17.00
2018-09-19T02:15:32.467Z,17.00
2018-09-19T02:18:00.908Z,17.00
2018-09-19T02:20:29.321Z,16.90
2018-09-19T02:22:57.769Z,16.80
2018-09-19T02:25:26.193Z,16.80
2018-09-19T02:27:54.759Z,16.80
2018-09-19T02:30:23.197Z,16.70
2018-09-19T02:32:51.750Z,16.70
2018-09-19T02:35:20.209Z,16.70
2018-09-19T02:37:48.909Z,16.70
2018-09-19T02:40:17.731Z,16.60
2018-09-19T02:42:46.203Z,16.50
2018-09-19T02:45:14.785Z,16.50
2018-09-19T02:47:43.279Z,16.40
2018-09-19T02:50:11.678Z,16.30
2018-09-19T02:52:40.115Z,16.30
2018-09-19T02:55:08.606Z,16.30
2018-09-19T02:57:37.063Z,16.30
2018-09-19T03:00:05.725Z,16.30
2018-09-19T03:02:34.179Z,16.30
2018-09-19T03:05:02.609Z,16.20
2018-09-19T03:07:31.027Z,16.10
2018-09-19T03:09:59.466Z,16.00
2018-09-19T03:12:27.913Z,16.00
2018-09-19T03:14:56.372Z,16.00
2018-09-19T03:17:24.869Z,16.00
2018-09-19T03:19:53.272Z,16.00
2018-09-19T03:22:21.715Z,16.00
2018-09-19T03:24:50.162Z,15.90
2018-09-19T03:27:18.645Z,15.90
2018-09-19T03:29:47.951Z,15.80
2018-09-19T03:32:16.366Z,15.80
2018-09-19T03:34:44.833Z,15.80
2018-09-19T03:37:13.262Z,15.80
2018-09-19T03:39:41.704Z,15.80
2018-09-19T03:42:10.123Z,15.80
2018-09-19T03:44:38.561Z,15.70
2018-09-19T03:47:07.019Z,15.60
2018-09-19T03:49:35.457Z,15.60
2018-09-19T03:52:03.878Z,15.60
2018-09-19T03:54:32.309Z,15.60
2018-09-19T03:57:00.716Z,15.60
2018-09-19T03:59:29.298Z,15.50
2018-09-19T04:01:57.717Z,15.50
2018-09-19T04:04:26.153Z,15.50
2018-09-19T04:06:54.555Z,15.40
2018-09-19T04:09:22.986Z,15.40
2018-09-19T04:11:51.420Z,15.40
2018-09-19T04:14:19.862Z,15.30
2018-09-19T04:16:48.262Z,15.30
2018-09-19T04:19:16.684Z,15.30
2018-09-19T04:21:50.306Z,15.20
2018-09-19T04:24:18.842Z,15.20
2018-09-19T04:26:47.266Z,15.20
2018-09-19T04:29:15.971Z,15.20
2018-09-19T04:31:44.625Z,15.20
2018-09-19T04:34:13.838Z,15.10
2018-09-19T04:36:42.252Z,15.10
2018-09-19T04:39:12.135Z,15.10
2018-09-19T04:41:40.560Z,15.00
2018-09-19T04:44:09.702Z,14.90
2018-09-19T04:46:38.881Z,14.90
2018-09-19T04:49:07.845Z,15.00
2018-09-19T04:51:36.762Z,15.00
2018-09-19T04:54:05.214Z,15.00
2018-09-19T04:56:33.644Z,14.90
2018-09-19T04:59:02.130Z,14.90
2018-09-19T05:01:30.673Z,14.90
2018-09-19T05:03:59.188Z,14.90
2018-09-19T05:06:27.963Z,14.90
2018-09-19T05:08:56.667Z,14.90
2018-09-19T05:11:25.172Z,14.90
2018-09-19T05:13:53.765Z,14.90
2018-09-19T05:16:22.178Z,14.90
2018-09-19T05:18:50.754Z,14.90
2018-09-19T05:21:19.237Z,14.90
2018-09-19T05:23:48.257Z,14.80
2018-09-19T05:26:16.651Z,14.80
2018-09-19T05:28:45.114Z,14.80
2018-09-19T05:31:13.506Z,14.80
2018-09-19T05:33:41.918Z,14.80
2018-09-19T05:36:10.328Z,14.80
2018-09-19T05:38:38.799Z,14.80
2018-09-19T05:41:07.558Z,14.90
2018-09-19T05:43:35.982Z,14.90
2018-09-19T05:46:04.417Z,15.00
2018-09-19T05:48:32.818Z,15.00
2018-09-19T05:51:01.260Z,15.10
2018-09-19T05:53:29.670Z,15.20
2018-09-19T05:55:58.150Z,15.20
2018-09-19T05:58:26.851Z,15.30
2018-09-19T06:00:55.467Z,15.30
2018-09-19T06:03:23.873Z,15.40
2018-09-19T06:05:52.321Z,15.40
2018-09-19T06:08:20.736Z,15.50
2018-09-19T06:10:49.170Z,15.60
2018-09-19T06:13:17.683Z,15.60
2018-09-19T06:15:46.117Z,15.70
2018-09-19T06:18:14.608Z,15.80
2018-09-19T06:20:43.049Z,15.90
2018-09-19T06:23:11.488Z,16.00
2018-09-19T06:25:39.930Z,16.00
2018-09-19T06:28:08.362Z,16.10
2018-09-19T06:30:36.792Z,16.20
2018-09-19T06:33:05.571Z,16.30
2018-09-19T06:35:33.863Z,16.40
2018-09-19T06:38:02.277Z,16.60
2018-09-19T06:40:30.789Z,16.60
2018-09-19T06:42:59.183Z,16.70
2018-09-19T06:45:27.674Z,16.80
2018-09-19T06:47:56.050Z,16.90
2018-09-19T06:50:24.502Z,17.00
2018-09-19T06:52:52.939Z,17.10
2018-09-19T06:55:21.396Z,17.20
2018-09-19T06:57:49.814Z,17.30
2018-09-19T07:00:18.264Z,17.40
2018-09-19T07:02:46.683Z,17.50
2018-09-19T07:05:15.127Z,17.80
2018-09-19T07:07:43.639Z,18.00
2018-09-19T07:10:12.094Z,18.10
2018-09-19T07:12:40.525Z,18.20
2018-09-19T07:15:09.009Z,18.40
2018-09-19T07:17:37.429Z,18.50
2018-09-19T07:20:06.029Z,18.70
2018-09-19T07:22:34.435Z,18.80
2018-09-19T07:25:02.912Z,18.90
2018-09-19T07:27:31.285Z,19.00
2018-09-19T07:29:59.719Z,19.20
2018-09-19T07:32:28.160Z,19.40
2018-09-19T07:34:56.582Z,19.50
2018-09-19T07:37:24.983Z,19.60
2018-09-19T07:39:53.418Z,19.80
2018-09-19T07:42:21.809Z,19.90
2018-09-19T07:44:50.245Z,20.00
2018-09-19T07:47:18.665Z,20.10
2018-09-19T07:49:47.099Z,20.30
2018-09-19T07:52:15.518Z,20.50
2018-09-19T07:54:44.036Z,20.70
2018-09-19T07:57:12.369Z,20.90
2018-09-19T07:59:40.790Z,21.00
2018-09-19T08:02:09.204Z,21.10
2018-09-19T08:04:37.648Z,21.20
2018-09-19T08:07:06.046Z,21.30
2018-09-19T08:09:34.468Z,21.40
2018-09-19T08:12:02.898Z,21.40
2018-09-19T08:14:31.361Z,21.60
2018-09-19T08:16:59.912Z,21.70
2018-09-19T08:19:28.256Z,21.80
2018-09-19T08:21:56.712Z,22.10
2018-09-19T08:24:25.147Z,22.30
2018-09-19T08:26:53.603Z,22.40
2018-09-19T08:29:22.074Z,22.50
2018-09-19T08:31:50.538Z,22.70
2018-09-19T08:34:19.058Z,22.50
2018-09-19T08:36:47.499Z,22.80
2018-09-19T08:39:15.937Z,23.20
2018-09-19T08:41:44.373Z,23.50
2018-09-19T08:44:12.799Z,23.80
2018-09-19T08:46:41.261Z,23.50
2018-09-19T08:49:09.700Z,23.70
2018-09-19T08:51:38.141Z,23.80
2018-09-19T08:54:06.575Z,23.60
2018-09-19T08:56:35.028Z,23.80
2018-09-19T08:59:03.472Z,24.00
2018-09-19T09:01:31.937Z,24.10
2018-09-19T09:04:00.349Z,24.00
2018-09-19T09:06:29.137Z,24.40
2018-09-19T09:08:57.588Z,24.90
2018-09-19T09:11:26.162Z,25.50
2018-09-19T09:13:54.809Z,26.10
2018-09-19T09:16:23.229Z,26.50
2018-09-19T09:18:51.734Z,27.20
2018-09-19T09:21:20.192Z,27.30
2018-09-19T09:23:48.598Z,27.00
2018-09-19T09:26:17.021Z,26.30
2018-09-19T09:28:45.450Z,26.70
2018-09-19T09:31:13.920Z,27.40
2018-09-19T09:33:42.305Z,27.60
2018-09-19T09:36:10.762Z,28.00
2018-09-19T09:38:39.226Z,27.50
2018-09-19T09:41:07.658Z,27.40
2018-09-19T09:43:36.147Z,28.30
2018-09-19T09:46:04.574Z,29.30
2018-09-19T09:48:32.970Z,29.20
2018-09-19T09:51:01.442Z,29.30
2018-09-19T09:55:58.325Z,28.90
2018-09-19T09:58:26.779Z,29.10
2018-09-19T10:00:55.231Z,29.20
2018-09-19T10:03:23.699Z,28.50
2018-09-19T10:05:52.125Z,28.80
2018-09-19T10:08:20.577Z,29.50
2018-09-19T10:10:48.982Z,30.80
2018-09-19T10:13:17.415Z,31.50
2018-09-19T10:15:45.870Z,32.20
2018-09-19T10:18:14.314Z,32.00
2018-09-19T10:20:42.742Z,31.90
2018-09-19T10:23:11.178Z,31.50
2018-09-19T10:25:39.616Z,31.50
2018-09-19T10:28:08.070Z,30.90
2018-09-19T10:30:36.530Z,30.80
2018-09-19T10:33:05.009Z,31.50
2018-09-19T10:35:33.533Z,32.60
2018-09-19T10:38:01.937Z,32.80
2018-09-19T10:40:30.345Z,32.90
2018-09-19T10:42:58.786Z,32.50
2018-09-19T10:45:27.198Z,32.60
2018-09-19T10:47:55.635Z,31.30
2018-09-19T10:50:24.294Z,31.50
2018-09-19T10:52:52.744Z,30.90
2018-09-19T10:55:21.194Z,31.50
2018-09-19T10:57:49.654Z,32.40
2018-09-19T11:00:18.069Z,32.60
2018-09-19T11:02:46.513Z,33.30
2018-09-19T11:05:14.922Z,33.00
2018-09-19T11:07:43.380Z,31.90
2018-09-19T11:10:11.809Z,31.40
2018-09-19T11:12:40.250Z,32.10
2018-09-19T11:15:08.698Z,33.10
2018-09-19T11:17:37.134Z,32.50
2018-09-19T11:20:05.702Z,32.10
2018-09-19T11:22:34.114Z,31.60
2018-09-19T11:25:02.595Z,31.20
2018-09-19T11:27:31.009Z,31.30
2018-09-19T11:29:59.466Z,31.20
2018-09-19T11:32:27.868Z,31.10
2018-09-19T11:34:56.557Z,31.70
2018-09-19T11:37:24.990Z,32.40
2018-09-19T11:39:53.423Z,31.20
2018-09-19T11:42:21.817Z,31.30
2018-09-19T11:44:50.266Z,31.30
2018-09-19T11:47:19.059Z,30.60
2018-09-19T11:49:47.484Z,30.40
2018-09-19T11:52:15.955Z,30.50
2018-09-19T11:54:44.621Z,30.70
2018-09-19T11:57:13.038Z,30.80
2018-09-19T11:59:41.481Z,30.60
2018-09-19T12:02:09.907Z,30.80
2018-09-19T12:04:38.382Z,30.10
2018-09-19T12:07:06.814Z,31.30
2018-09-19T12:09:35.245Z,31.40
2018-09-19T12:12:03.690Z,31.50
2018-09-19T12:14:32.161Z,31.30
2018-09-19T12:17:00.582Z,31.40
2018-09-19T12:19:29.049Z,31.70
2018-09-19T12:21:57.440Z,31.30
2018-09-19T12:24:25.862Z,31.90
2018-09-19T12:26:54.276Z,31.30
2018-09-19T12:29:22.713Z,30.80
2018-09-19T12:31:51.110Z,30.80
2018-09-19T12:34:19.552Z,31.20
2018-09-19T12:36:48.207Z,32.00
2018-09-19T12:39:16.894Z,32.50
2018-09-19T12:41:45.330Z,32.60
2018-09-19T12:44:13.802Z,33.30
2018-09-19T12:46:42.239Z,32.40
2018-09-19T12:49:10.922Z,32.40
2018-09-19T12:51:39.313Z,32.60
2018-09-19T12:54:07.770Z,32.10
2018-09-19T12:56:36.185Z,31.50
2018-09-19T12:59:04.641Z,31.40
2018-09-19T13:01:33.078Z,31.00
2018-09-19T13:04:01.490Z,30.90
2018-09-19T13:06:29.930Z,31.60
2018-09-19T13:08:58.366Z,32.00
2018-09-19T13:11:26.830Z,32.30
2018-09-19T13:13:55.285Z,32.60
2018-09-19T13:16:23.721Z,34.00
2018-09-19T13:18:52.143Z,33.90
2018-09-19T13:21:20.569Z,33.30
2018-09-19T13:23:49.086Z,33.90
2018-09-19T13:26:17.505Z,33.40
2018-09-19T13:28:45.906Z,33.30
2018-09-19T13:31:14.331Z,35.40
2018-09-19T13:33:42.733Z,35.70
2018-09-19T13:36:11.159Z,34.00
2018-09-19T13:38:39.554Z,35.30
2018-09-19T13:41:08.329Z,33.90
2018-09-19T13:43:36.799Z,35.00
2018-09-19T13:46:05.405Z,36.60
2018-09-19T13:48:33.814Z,37.40
2018-09-19T13:51:09.113Z,36.10
2018-09-19T13:53:37.546Z,36.70
2018-09-19T13:56:06.042Z,35.00
2018-09-19T13:58:34.449Z,34.70
2018-09-19T14:01:02.877Z,34.80
2018-09-19T14:03:31.278Z,33.80
2018-09-19T14:05:59.705Z,33.90
2018-09-19T14:08:28.110Z,33.80
2018-09-19T14:10:56.539Z,33.20
2018-09-19T14:13:24.974Z,32.70
2018-09-19T14:15:53.442Z,32.00
2018-09-19T14:18:21.885Z,31.60
2018-09-19T14:20:50.313Z,31.70
2018-09-19T14:23:18.717Z,31.60
2018-09-19T14:25:47.155Z,31.20
2018-09-19T14:28:15.558Z,31.50
2018-09-19T14:30:43.978Z,31.40
2018-09-19T14:33:12.453Z,31.50
2018-09-19T14:35:40.928Z,31.50
2018-09-19T14:38:09.359Z,31.30
2018-09-19T14:40:37.785Z,31.40
2018-09-19T14:43:06.238Z,31.30
2018-09-19T14:45:34.666Z,31.50
2018-09-19T14:48:03.150Z,31.60
2018-09-19T14:50:31.577Z,31.70
2018-09-19T14:52:59.977Z,31.30
2018-09-19T14:55:28.406Z,30.60
2018-09-19T14:57:56.825Z,30.70
2018-09-19T15:00:25.318Z,31.10
2018-09-19T15:02:53.834Z,31.50
2018-09-19T15:05:22.261Z,31.50
2018-09-19T15:07:50.760Z,31.20
2018-09-19T15:10:19.126Z,30.70
2018-09-19T15:12:47.570Z,30.60
2018-09-19T15:15:16.126Z,30.70
2018-09-19T15:17:44.571Z,30.60
2018-09-19T15:20:12.991Z,30.10
2018-09-19T15:22:41.451Z,29.60
2018-09-19T15:25:09.863Z,29.10
2018-09-19T15:27:38.305Z,28.80
2018-09-19T15:30:06.749Z,28.40
2018-09-19T15:32:35.182Z,28.20
2018-09-19T15:35:03.697Z,28.20
2018-09-19T15:37:32.134Z,28.30
2018-09-19T15:40:00.549Z,28.30
2018-09-19T15:42:29.001Z,28.20
2018-09-19T15:44:57.414Z,28.10
2018-09-19T15:47:25.857Z,28.00
2018-09-19T15:49:54.281Z,27.80
2018-09-19T15:52:22.741Z,27.80
2018-09-19T15:54:51.181Z,27.70
2018-09-19T15:57:19.679Z,27.50
2018-09-19T15:59:48.074Z,27.50
2018-09-19T16:02:16.526Z,27.50
2018-09-19T16:04:44.935Z,27.40
2018-09-19T16:07:13.546Z,27.30
2018-09-19T16:09:41.979Z,27.20
2018-09-19T16:12:10.561Z,27.20
2018-09-19T16:14:39.030Z,27.10
2018-09-19T16:17:07.524Z,27.10
2018-09-19T16:19:35.996Z,27.10
2018-09-19T16:22:04.441Z,27.10
2018-09-19T16:24:32.859Z,27.00
2018-09-19T16:27:01.318Z,27.00
2018-09-19T16:29:29.746Z,26.90
2018-09-19T16:31:58.200Z,26.90
2018-09-19T16:34:26.661Z,26.80
2018-09-19T16:36:55.103Z,26.80
2018-09-19T16:39:23.536Z,26.70
2018-09-19T16:41:51.988Z,26.60
2018-09-19T16:44:20.439Z,26.60
2018-09-19T16:46:48.921Z,26.50
2018-09-19T16:49:17.335Z,26.50
2018-09-19T16:51:45.800Z,26.50
2018-09-19T16:54:14.217Z,26.40
2018-09-19T16:56:42.674Z,26.30
2018-09-19T16:59:11.090Z,26.20
2018-09-19T17:01:39.537Z,26.20
2018-09-19T17:04:07.978Z,26.10
2018-09-19T17:06:36.395Z,26.00
2018-09-19T17:09:06.682Z,25.90
2018-09-19T17:11:35.098Z,25.90
2018-09-19T17:14:03.571Z,25.80
2018-09-19T17:16:31.994Z,25.60
2018-09-19T17:19:00.426Z,25.50
2018-09-19T17:21:28.841Z,25.40
2018-09-19T17:23:57.266Z,25.30
2018-09-19T17:26:25.695Z,25.20
2018-09-19T17:28:54.178Z,25.10
2018-09-19T17:31:22.626Z,24.90
2018-09-19T17:33:51.077Z,24.70
2018-09-19T17:36:19.474Z,24.50
2018-09-19T17:38:47.925Z,24.30
2018-09-19T17:41:16.429Z,24.20
2018-09-19T17:43:44.870Z,24.10
2018-09-19T17:46:13.341Z,24.00
2018-09-19T17:48:41.757Z,23.90
2018-09-19T17:51:10.264Z,23.80
2018-09-19T17:53:38.726Z,23.70
2018-09-19T17:56:07.210Z,23.60
2018-09-19T17:58:35.653Z,23.50
2018-09-19T18:01:04.104Z,23.40
2018-09-19T18:03:32.590Z,23.30
2018-09-19T18:06:01.028Z,23.10
2018-09-19T18:08:29.479Z,23.00
2018-09-19T18:10:57.909Z,22.90
2018-09-19T18:13:26.436Z,22.80
2018-09-19T18:15:54.874Z,22.80
2018-09-19T18:18:23.345Z,23.00
2018-09-19T18:20:51.832Z,23.20
2018-09-19T18:23:20.338Z,23.70
2018-09-19T18:25:48.834Z,23.80
2018-09-19T18:28:17.371Z,24.20
2018-09-19T18:30:45.848Z,24.30
2018-09-19T18:33:14.350Z,24.30
2018-09-19T18:35:42.837Z,24.30
2018-09-19T18:38:11.392Z,24.30
2018-09-19T18:40:39.881Z,24.20
2018-09-19T18:43:08.574Z,23.90
2018-09-19T18:45:37.077Z,23.60
2018-09-19T18:48:05.571Z,23.40
2018-09-19T18:50:34.123Z,23.20
2018-09-19T18:53:02.550Z,22.60
2018-09-19T18:55:31.000Z,22.10
2018-09-19T18:57:59.413Z,21.90
2018-09-19T19:00:27.871Z,21.70
2018-09-19T19:02:56.286Z,21.60
2018-09-19T19:05:24.746Z,21.50
2018-09-19T19:07:53.228Z,21.40
2018-09-19T19:10:21.634Z,21.30
2018-09-19T19:12:50.058Z,21.20
2018-09-19T19:15:18.537Z,21.00
2018-09-19T19:17:46.961Z,21.00
2018-09-19T19:20:15.398Z,20.90
2018-09-19T19:22:43.834Z,20.80
2018-09-19T19:25:12.269Z,20.80
2018-09-19T19:27:40.693Z,20.80
2018-09-19T19:30:09.229Z,20.80
2018-09-19T19:32:39.074Z,20.70
2018-09-19T19:35:07.556Z,20.70
2018-09-19T19:37:36.001Z,20.60
2018-09-19T19:40:04.547Z,20.50
2018-09-19T19:42:32.959Z,20.50
2018-09-19T19:45:01.406Z,20.40
2018-09-19T19:47:29.837Z,20.40
2018-09-19T19:49:58.258Z,20.30
2018-09-19T19:52:26.685Z,20.30
2018-09-19T19:54:55.120Z,20.20
2018-09-19T19:57:23.538Z,20.10
2018-09-19T19:59:51.978Z,20.10
2018-09-19T20:02:20.403Z,20.00
2018-09-19T20:04:48.847Z,19.90
2018-09-19T20:07:17.265Z,19.90
2018-09-19T20:09:45.737Z,19.80
2018-09-19T20:12:14.161Z,19.80
2018-09-19T20:14:42.630Z,19.70
2018-09-19T20:17:11.054Z,19.70
2018-09-19T20:19:39.494Z,19.60
2018-09-19T20:22:09.910Z,19.60
2018-09-19T20:24:38.448Z,19.60
2018-09-19T20:27:07.265Z,19.50
2018-09-19T20:29:35.810Z,19.50
2018-09-19T20:32:04.262Z,19.40
2018-09-19T20:34:32.670Z,19.40
2018-09-19T20:37:01.110Z,19.40
2018-09-19T20:39:29.515Z,19.40
2018-09-19T20:41:57.942Z,19.30
2018-09-19T20:44:26.357Z,19.30
2018-09-19T20:46:54.799Z,19.20
2018-09-19T20:49:23.219Z,19.20
2018-09-19T20:51:51.643Z,19.20
2018-09-19T20:54:20.062Z,19.20
2018-09-19T20:56:48.497Z,19.20
2018-09-19T20:59:16.918Z,19.10
2018-09-19T21:01:45.349Z,19.00
2018-09-19T21:04:13.755Z,18.90
2018-09-19T21:06:42.194Z,18.90
2018-09-19T21:09:10.594Z,18.80
2018-09-19T21:11:39.037Z,18.80
2018-09-19T21:14:07.445Z,18.80
2018-09-19T21:16:35.979Z,18.80
2018-09-19T21:19:04.369Z,18.70
2018-09-19T21:21:32.826Z,18.70
2018-09-19T21:24:01.221Z,18.70
2018-09-19T21:26:29.630Z,18.70
2018-09-19T21:28:58.025Z,18.70
2018-09-19T21:31:26.439Z,18.70
2018-09-19T21:33:54.883Z,18.70
2018-09-19T21:36:23.314Z,18.60
2018-09-19T21:38:51.734Z,18.60
2018-09-19T21:41:20.154Z,18.50
2018-09-19T21:43:48.551Z,18.40
2018-09-19T21:46:16.979Z,18.40
2018-09-19T21:48:45.426Z,18.40
2018-09-19T21:51:13.861Z,18.40
2018-09-19T21:53:42.303Z,18.30
2018-09-19T21:56:10.729Z,18.30
2018-09-19T21:58:39.118Z,18.20
2018-09-19T22:01:09.674Z,18.20
2018-09-19T22:03:39.651Z,18.10
2018-09-19T22:06:08.369Z,18.10
2018-09-19T22:08:37.638Z,18.10
2018-09-19T22:11:06.393Z,18.10
2018-09-19T22:13:34.925Z,18.00
2018-09-19T22:16:03.355Z,18.00
2018-09-19T22:18:31.758Z,18.10
2018-09-19T22:21:00.187Z,18.10
2018-09-19T22:23:28.609Z,18.10
2018-09-19T22:25:57.062Z,18.00
2018-09-19T22:28:25.466Z,18.00
2018-09-19T22:30:53.902Z,17.90
2018-09-19T22:33:23.263Z,17.90
2018-09-19T22:35:51.691Z,17.80
2018-09-19T22:38:20.094Z,17.70
2018-09-19T22:40:48.529Z,17.70
2018-09-19T22:43:16.961Z,17.60
2018-09-19T22:45:45.559Z,17.60
2018-09-19T22:48:13.916Z,17.60
2018-09-19T22:50:42.372Z,17.70
2018-09-19T22:53:10.809Z,17.60
2018-09-19T22:55:39.218Z,17.60
2018-09-19T22:58:07.636Z,17.60
2018-09-19T23:00:36.065Z,17.60
2018-09-19T23:03:04.549Z,17.50
2018-09-19T23:05:32.961Z,17.50
2018-09-19T23:08:01.385Z,17.40
2018-09-19T23:10:29.797Z,17.40
2018-09-19T23:12:58.226Z,17.40
2018-09-19T23:15:26.692Z,17.40
2018-09-19T23:17:55.133Z,17.40
2018-09-19T23:20:23.559Z,17.40
2018-09-19T23:22:52.015Z,17.30
2018-09-19T23:25:20.430Z,17.20
2018-09-19T23:27:48.870Z,17.20
2018-09-19T23:30:17.282Z,17.10
2018-09-19T23:32:45.710Z,17.00
2018-09-19T23:35:14.119Z,17.00
2018-09-19T23:37:42.549Z,17.00
2018-09-19T23:40:10.991Z,16.90
2018-09-19T23:42:39.459Z,16.80
2018-09-19T23:45:07.861Z,16.80
2018-09-19T23:47:36.294Z,16.80
2018-09-19T23:50:04.885Z,16.80
2018-09-19T23:52:33.317Z,16.80
2018-09-19T23:55:01.791Z,16.80
2018-09-19T23:57:30.234Z,16.80
2018-09-19T23:59:58.669Z,16.80
